sensor_id;sensor_type;location;lat;lon;timestamp;pressure;altitude;pressure_sealevel;temperature;humidity
5413;BME280;2729;50.056;8.678;2023-03-15T00:00:14;99928.75;;;5.72;100.00
5413;BME280;2729;50.056;8.678;2023-03-15T00:02:40;99933.13;;;5.67;100.00
5413;BME280;2729;50.056;8.678;2023-03-15T00:05:06;99942.03;;;5.38;100.00
5413;BME280;2729;50.056;8.678;2023-03-15T00:07:32;99937.72;;;5.40;100.00
5413;BME280;2729;50.056;8.678;2023-03-15T00:09:58;99939.44;;;5.41;100.00
5413;BME280;2729;50.056;8.678;2023-03-15T00:12:24;99950.75;;;5.30;100.00
5413;BME280;2729;50.056;8.678;2023-03-15T00:14:50;99952.44;;;5.32;100.00
5413;BME280;2729;50.056;8.678;2023-03-15T00:17:16;99952.59;;;5.12;100.00
5413;BME280;2729;50.056;8.678;2023-03-15T00:19:42;99960.34;;;5.14;100.00
5413;BME280;2729;50.056;8.678;2023-03-15T00:22:08;99962.97;;;5.06;100.00
5413;BME280;2729;50.056;8.678;2023-03-15T00:24:34;99960.53;;;4.90;100.00
5413;BME280;2729;50.056;8.678;2023-03-15T00:27:00;99970.81;;;4.96;100.00
5413;BME280;2729;50.056;8.678;2023-03-15T00:29:26;99973.44;;;4.91;100.00
5413;BME280;2729;50.056;8.678;2023-03-15T00:31:52;99989.84;;;4.84;100.00
5413;BME280;2729;50.056;8.678;2023-03-15T00:34:20;99980.47;;;4.69;100.00
5413;BME280;2729;50.056;8.678;2023-03-15T00:36:51;99988.28;;;4.57;100.00
5413;BME280;2729;50.056;8.678;2023-03-15T00:39:19;99989.13;;;4.65;100.00
5413;BME280;2729;50.056;8.678;2023-03-15T00:41:45;100000.41;;;4.44;100.00
5413;BME280;2729;50.056;8.678;2023-03-15T00:44:11;100002.06;;;4.59;100.00
5413;BME280;2729;50.056;8.678;2023-03-15T00:46:37;99997.66;;;4.76;100.00
5413;BME280;2729;50.056;8.678;2023-03-15T00:49:03;100001.22;;;4.57;100.00
5413;BME280;2729;50.056;8.678;2023-03-15T00:51:29;100002.88;;;4.72;100.00
5413;BME280;2729;50.056;8.678;2023-03-15T00:53:55;100007.31;;;4.39;100.00
5413;BME280;2729;50.056;8.678;2023-03-15T00:56:24;100014.25;;;4.34;100.00
5413;BME280;2729;50.056;8.678;2023-03-15T00:58:51;100007.28;;;4.48;100.00
5413;BME280;2729;50.056;8.678;2023-03-15T01:01:26;100007.28;;;4.53;100.00
5413;BME280;2729;50.056;8.678;2023-03-15T01:03:53;100007.28;;;4.53;100.00
5413;BME280;2729;50.056;8.678;2023-03-15T01:06:24;100009.00;;;4.51;100.00
5413;BME280;2729;50.056;8.678;2023-03-15T01:08:51;100017.69;;;4.35;100.00
5413;BME280;2729;50.056;8.678;2023-03-15T01:11:21;100027.16;;;4.30;100.00
5413;BME280;2729;50.056;8.678;2023-03-15T01:13:50;100028.91;;;4.26;100.00
5413;BME280;2729;50.056;8.678;2023-03-15T01:16:17;100041.06;;;3.72;100.00
5413;BME280;2729;50.056;8.678;2023-03-15T01:18:43;100041.91;;;3.97;100.00
5413;BME280;2729;50.056;8.678;2023-03-15T01:21:10;100049.66;;;3.83;100.00
5413;BME280;2729;50.056;8.678;2023-03-15T01:23:37;100045.31;;;4.14;100.00
5413;BME280;2729;50.056;8.678;2023-03-15T01:26:05;100043.59;;;4.07;100.00
5413;BME280;2729;50.056;8.678;2023-03-15T01:28:31;100039.28;;;4.12;100.00
5413;BME280;2729;50.056;8.678;2023-03-15T01:30:57;100037.53;;;4.22;100.00
5413;BME280;2729;50.056;8.678;2023-03-15T01:33:23;100050.50;;;4.04;100.00
5413;BME280;2729;50.056;8.678;2023-03-15T01:36:05;100047.94;;;3.90;100.00
5413;BME280;2729;50.056;8.678;2023-03-15T01:38:32;100044.47;;;3.97;100.00
5413;BME280;2729;50.056;8.678;2023-03-15T01:40:59;100045.38;;;3.84;100.00
5413;BME280;2729;50.056;8.678;2023-03-15T01:43:27;100036.75;;;3.83;100.00
5413;BME280;2729;50.056;8.678;2023-03-15T01:46:01;100042.78;;;3.88;100.00
5413;BME280;2729;50.056;8.678;2023-03-15T01:48:37;100053.94;;;4.03;100.00
5413;BME280;2729;50.056;8.678;2023-03-15T01:51:18;100055.66;;;4.07;100.00
5413;BME280;2729;50.056;8.678;2023-03-15T01:53:51;100064.28;;;3.95;100.00
5413;BME280;2729;50.056;8.678;2023-03-15T01:56:21;100062.56;;;3.93;100.00
5413;BME280;2729;50.056;8.678;2023-03-15T01:58:50;100072.91;;;3.82;100.00
5413;BME280;2729;50.056;8.678;2023-03-15T02:01:18;100075.47;;;3.88;100.00
5413;BME280;2729;50.056;8.678;2023-03-15T02:03:50;100071.16;;;3.98;100.00
5413;BME280;2729;50.056;8.678;2023-03-15T02:06:18;100071.16;;;3.95;100.00
5413;BME280;2729;50.056;8.678;2023-03-15T02:08:56;100068.59;;;3.92;100.00
5413;BME280;2729;50.056;8.678;2023-03-15T02:11:27;100083.22;;;3.85;100.00
5413;BME280;2729;50.056;8.678;2023-03-15T02:13:55;100091.84;;;3.75;100.00
5413;BME280;2729;50.056;8.678;2023-03-15T02:16:22;100090.97;;;3.64;100.00
5413;BME280;2729;50.056;8.678;2023-03-15T02:18:55;100095.28;;;3.72;100.00
5413;BME280;2729;50.056;8.678;2023-03-15T02:21:49;100091.81;;;3.90;100.00
5413;BME280;2729;50.056;8.678;2023-03-15T02:24:32;100085.81;;;3.82;100.00
5413;BME280;2729;50.056;8.678;2023-03-15T02:27:02;100081.50;;;3.37;100.00
5413;BME280;2729;50.056;8.678;2023-03-15T02:29:28;100074.63;;;3.55;100.00
5413;BME280;2729;50.056;8.678;2023-03-15T02:31:56;100080.66;;;3.56;100.00
5413;BME280;2729;50.056;8.678;2023-03-15T02:34:24;100079.78;;;3.59;100.00
5413;BME280;2729;50.056;8.678;2023-03-15T02:36:51;100090.97;;;3.64;100.00
5413;BME280;2729;50.056;8.678;2023-03-15T02:39:20;100085.81;;;3.51;100.00
5413;BME280;2729;50.056;8.678;2023-03-15T02:41:52;100084.94;;;3.55;100.00
5413;BME280;2729;50.056;8.678;2023-03-15T02:44:38;100093.53;;;3.45;100.00
5413;BME280;2729;50.056;8.678;2023-03-15T02:47:09;100093.50;;;3.24;100.00
5413;BME280;2729;50.056;8.678;2023-03-15T02:49:41;100091.78;;;3.23;100.00
5413;BME280;2729;50.056;8.678;2023-03-15T02:52:08;100092.66;;;3.17;100.00
5413;BME280;2729;50.056;8.678;2023-03-15T02:54:34;100104.72;;;3.32;100.00
5413;BME280;2729;50.056;8.678;2023-03-15T02:57:01;100095.19;;;3.04;100.00
5413;BME280;2729;50.056;8.678;2023-03-15T02:59:28;100101.25;;;3.21;100.00
5413;BME280;2729;50.056;8.678;2023-03-15T03:01:54;100107.25;;;3.09;100.00
5413;BME280;2729;50.056;8.678;2023-03-15T03:04:20;100110.72;;;3.28;100.00
5413;BME280;2729;50.056;8.678;2023-03-15T03:06:46;100116.69;;;3.12;100.00
5413;BME280;2729;50.056;8.678;2023-03-15T03:09:16;100115.84;;;3.16;100.00
5413;BME280;2729;50.056;8.678;2023-03-15T03:11:42;100111.53;;;3.15;100.00
5413;BME280;2729;50.056;8.678;2023-03-15T03:14:08;100114.16;;;3.32;100.00
5413;BME280;2729;50.056;8.678;2023-03-15T03:16:34;100117.59;;;3.37;100.00
5413;BME280;2729;50.056;8.678;2023-03-15T03:19:00;100119.31;;;3.32;100.00
5413;BME280;2729;50.056;8.678;2023-03-15T03:21:29;100127.03;;;3.18;100.00
5413;BME280;2729;50.056;8.678;2023-03-15T03:23:55;100135.59;;;3.08;100.00
5413;BME280;2729;50.056;8.678;2023-03-15T03:26:21;100139.94;;;3.21;100.00
5413;BME280;2729;50.056;8.678;2023-03-15T03:28:53;100152.84;;;3.30;100.00
5413;BME280;2729;50.056;8.678;2023-03-15T03:31:23;100150.25;;;3.24;100.00
5413;BME280;2729;50.056;8.678;2023-03-15T03:33:51;100160.56;;;3.22;100.00
5413;BME280;2729;50.056;8.678;2023-03-15T03:36:18;100157.91;;;2.98;100.00
5413;BME280;2729;50.056;8.678;2023-03-15T03:38:45;100153.66;;;3.14;100.00
5413;BME280;2729;50.056;8.678;2023-03-15T03:41:12;100158.00;;;3.35;100.00
5413;BME280;2729;50.056;8.678;2023-03-15T03:43:39;100155.47;;;3.48;100.00
5413;BME280;2729;50.056;8.678;2023-03-15T03:46:05;100159.69;;;3.23;100.00
5413;BME280;2729;50.056;8.678;2023-03-15T03:48:34;100157.19;;;3.49;100.00
5413;BME280;2729;50.056;8.678;2023-03-15T03:51:00;100157.19;;;3.55;100.00
5413;BME280;2729;50.056;8.678;2023-03-15T03:53:26;100160.66;;;3.65;100.00
5413;BME280;2729;50.056;8.678;2023-03-15T03:55:52;100151.19;;;3.76;100.00
5413;BME280;2729;50.056;8.678;2023-03-15T03:58:21;100164.09;;;3.66;100.00
5413;BME280;2729;50.056;8.678;2023-03-15T04:00:52;100163.22;;;3.68;100.00
5413;BME280;2729;50.056;8.678;2023-03-15T04:03:23;100172.69;;;3.59;100.00
5413;BME280;2729;50.056;8.678;2023-03-15T04:05:54;100172.66;;;3.54;100.00
5413;BME280;2729;50.056;8.678;2023-03-15T04:08:23;100176.97;;;3.60;100.00
5413;BME280;2729;50.056;8.678;2023-03-15T04:10:54;100176.13;;;3.61;100.00
5413;BME280;2729;50.056;8.678;2023-03-15T04:13:23;100178.69;;;3.58;100.00
5413;BME280;2729;50.056;8.678;2023-03-15T04:15:49;100176.97;;;3.64;100.00
5413;BME280;2729;50.056;8.678;2023-03-15T04:18:16;100189.88;;;3.61;100.00
5413;BME280;2729;50.056;8.678;2023-03-15T04:20:46;100183.03;;;3.74;100.00
5413;BME280;2729;50.056;8.678;2023-03-15T04:23:13;100189.03;;;3.59;100.00
5413;BME280;2729;50.056;8.678;2023-03-15T04:25:52;100189.03;;;3.76;100.00
5413;BME280;2729;50.056;8.678;2023-03-15T04:28:36;100182.97;;;3.48;100.00
5413;BME280;2729;50.056;8.678;2023-03-15T04:31:12;100180.44;;;3.71;100.00
5413;BME280;2729;50.056;8.678;2023-03-15T04:33:58;100195.00;;;3.47;100.00
5413;BME280;2729;50.056;8.678;2023-03-15T04:36:48;100200.19;;;3.60;100.00
5413;BME280;2729;50.056;8.678;2023-03-15T04:39:31;100202.78;;;3.69;100.00
5413;BME280;2729;50.056;8.678;2023-03-15T04:42:05;100189.88;;;3.64;100.00
5413;BME280;2729;50.056;8.678;2023-03-15T04:44:53;100191.53;;;3.29;100.00
5413;BME280;2729;50.056;8.678;2023-03-15T04:47:42;100195.88;;;3.52;100.00
5413;BME280;2729;50.056;8.678;2023-03-15T04:50:28;100201.03;;;3.46;100.00
5413;BME280;2729;50.056;8.678;2023-03-15T04:53:23;100190.72;;;3.49;100.00
5413;BME280;2729;50.056;8.678;2023-03-15T04:56:03;100189.00;;;3.45;100.00
5413;BME280;2729;50.056;8.678;2023-03-15T04:59:01;100189.88;;;3.57;100.00
5413;BME280;2729;50.056;8.678;2023-03-15T05:01:45;100188.97;;;3.33;100.00
5413;BME280;2729;50.056;8.678;2023-03-15T05:04:17;100187.25;;;3.38;100.00
5413;BME280;2729;50.056;8.678;2023-03-15T05:07:01;100185.56;;;3.46;100.00
5413;BME280;2729;50.056;8.678;2023-03-15T05:09:55;100194.19;;;3.74;100.00
5413;BME280;2729;50.056;8.678;2023-03-15T05:12:50;100189.03;;;3.73;100.00
5413;BME280;2729;50.056;8.678;2023-03-15T05:15:25;100193.34;;;3.83;100.00
5413;BME280;2729;50.056;8.678;2023-03-15T05:17:51;100200.25;;;3.95;100.00
5413;BME280;2729;50.056;8.678;2023-03-15T05:20:37;100195.94;;;3.83;100.00
5413;BME280;2729;50.056;8.678;2023-03-15T05:23:15;100199.38;;;3.93;100.00
5413;BME280;2729;50.056;8.678;2023-03-15T05:26:07;100197.63;;;3.64;100.00
5413;BME280;2729;50.056;8.678;2023-03-15T05:28:49;100200.22;;;3.67;100.00
5413;BME280;2729;50.056;8.678;2023-03-15T05:31:17;100204.53;;;3.86;100.00
5413;BME280;2729;50.056;8.678;2023-03-15T05:34:06;100210.56;;;3.75;100.00
5413;BME280;2729;50.056;8.678;2023-03-15T05:36:54;100213.13;;;3.79;100.00
5413;BME280;2729;50.056;8.678;2023-03-15T05:39:34;100220.88;;;3.81;100.00
5413;BME280;2729;50.056;8.678;2023-03-15T05:42:33;100238.94;;;3.69;100.00
5413;BME280;2729;50.056;8.678;2023-03-15T05:45:22;100228.63;;;3.92;100.00
5413;BME280;2729;50.056;8.678;2023-03-15T05:48:13;100230.38;;;4.03;100.00
5413;BME280;2729;50.056;8.678;2023-03-15T05:50:51;100233.78;;;3.85;100.00
5413;BME280;2729;50.056;8.678;2023-03-15T05:53:37;100236.38;;;3.87;100.00
5413;BME280;2729;50.056;8.678;2023-03-15T05:56:12;100250.16;;;3.92;100.00
5413;BME280;2729;50.056;8.678;2023-03-15T05:58:55;100243.28;;;3.93;100.00
5413;BME280;2729;50.056;8.678;2023-03-15T06:01:36;100244.16;;;4.17;100.00
5413;BME280;2729;50.056;8.678;2023-03-15T06:04:28;100243.28;;;4.05;100.00
5413;BME280;2729;50.056;8.678;2023-03-15T06:06:56;100249.28;;;3.78;100.00
5413;BME280;2729;50.056;8.678;2023-03-15T06:09:22;100248.41;;;3.82;100.00
5413;BME280;2729;50.056;8.678;2023-03-15T06:11:48;100251.84;;;3.75;100.00
5413;BME280;2729;50.056;8.678;2023-03-15T06:14:15;100246.72;;;3.99;100.00
5413;BME280;2729;50.056;8.678;2023-03-15T06:16:50;100247.56;;;3.89;100.00
5413;BME280;2729;50.056;8.678;2023-03-15T06:19:17;100250.97;;;3.74;100.00
5413;BME280;2729;50.056;8.678;2023-03-15T06:21:43;100248.44;;;4.02;100.00
5413;BME280;2729;50.056;8.678;2023-03-15T06:24:15;100252.75;;;3.97;100.00
5413;BME280;2729;50.056;8.678;2023-03-15T06:26:41;100256.19;;;4.03;100.00
5413;BME280;2729;50.056;8.678;2023-03-15T06:29:07;100251.91;;;4.11;100.00
5413;BME280;2729;50.056;8.678;2023-03-15T06:31:33;100263.06;;;4.00;100.00
5413;BME280;2729;50.056;8.678;2023-03-15T06:34:05;100257.91;;;4.07;100.00
5413;BME280;2729;50.056;8.678;2023-03-15T06:36:33;100264.69;;;3.53;100.00
5413;BME280;2729;50.056;8.678;2023-03-15T06:38:59;100272.47;;;3.63;100.00
5413;BME280;2729;50.056;8.678;2023-03-15T06:41:27;100280.22;;;3.72;100.00
5413;BME280;2729;50.056;8.678;2023-03-15T06:44:01;100279.41;;;3.88;100.00
5413;BME280;2729;50.056;8.678;2023-03-15T06:46:27;100279.38;;;3.73;100.00
5413;BME280;2729;50.056;8.678;2023-03-15T06:48:53;100279.38;;;3.76;100.00
5413;BME280;2729;50.056;8.678;2023-03-15T06:51:20;100287.19;;;4.02;100.00
5413;BME280;2729;50.056;8.678;2023-03-15T06:53:46;100287.19;;;4.02;100.00
5413;BME280;2729;50.056;8.678;2023-03-15T06:56:12;100288.88;;;3.92;100.00
5413;BME280;2729;50.056;8.678;2023-03-15T06:58:38;100293.19;;;3.99;100.00
5413;BME280;2729;50.056;8.678;2023-03-15T07:01:04;100294.91;;;3.97;100.00
5413;BME280;2729;50.056;8.678;2023-03-15T07:03:30;100302.63;;;3.88;100.00
5413;BME280;2729;50.056;8.678;2023-03-15T07:05:56;100302.66;;;4.00;100.00
5413;BME280;2729;50.056;8.678;2023-03-15T07:08:24;100302.66;;;3.94;100.00
5413;BME280;2729;50.056;8.678;2023-03-15T07:10:50;100311.25;;;3.87;100.00
5413;BME280;2729;50.056;8.678;2023-03-15T07:13:18;100312.09;;;3.86;100.00
5413;BME280;2729;50.056;8.678;2023-03-15T07:15:44;100306.97;;;3.98;100.00
5413;BME280;2729;50.056;8.678;2023-03-15T07:18:10;100309.53;;;3.98;100.00
5413;BME280;2729;50.056;8.678;2023-03-15T07:20:36;100307.78;;;3.83;100.00
5413;BME280;2729;50.056;8.678;2023-03-15T07:23:02;100320.69;;;3.85;100.00
5413;BME280;2729;50.056;8.678;2023-03-15T07:25:28;100320.69;;;3.82;100.00
5413;BME280;2729;50.056;8.678;2023-03-15T07:27:54;100328.47;;;3.90;100.00
5413;BME280;2729;50.056;8.678;2023-03-15T07:30:21;100322.44;;;3.94;100.00
5413;BME280;2729;50.056;8.678;2023-03-15T07:32:47;100323.34;;;4.15;100.00
5413;BME280;2729;50.056;8.678;2023-03-15T07:35:13;100321.66;;;4.24;100.00
5413;BME280;2729;50.056;8.678;2023-03-15T07:37:39;100323.38;;;4.37;100.00
5413;BME280;2729;50.056;8.678;2023-03-15T07:40:06;100328.56;;;4.44;100.00
5413;BME280;2729;50.056;8.678;2023-03-15T07:42:36;100327.69;;;4.32;100.00
5413;BME280;2729;50.056;8.678;2023-03-15T07:45:03;100325.13;;;4.56;100.00
5413;BME280;2729;50.056;8.678;2023-03-15T07:47:30;100329.44;;;4.65;100.00
5413;BME280;2729;50.056;8.678;2023-03-15T07:49:56;100332.00;;;4.71;100.00
5413;BME280;2729;50.056;8.678;2023-03-15T07:52:22;100335.44;;;4.80;100.00
5413;BME280;2729;50.056;8.678;2023-03-15T07:54:48;100338.03;;;4.64;100.00
5413;BME280;2729;50.056;8.678;2023-03-15T07:57:14;100340.63;;;4.82;100.00
5413;BME280;2729;50.056;8.678;2023-03-15T07:59:40;100340.59;;;4.97;100.00
5413;BME280;2729;50.056;8.678;2023-03-15T08:02:10;100343.19;;;5.02;100.00
5413;BME280;2729;50.056;8.678;2023-03-15T08:04:36;100337.13;;;5.18;100.00
5413;BME280;2729;50.056;8.678;2023-03-15T08:07:02;100341.41;;;5.40;100.00
5413;BME280;2729;50.056;8.678;2023-03-15T08:09:28;100339.69;;;5.39;100.00
5413;BME280;2729;50.056;8.678;2023-03-15T08:11:54;100337.94;;;5.51;100.00
5413;BME280;2729;50.056;8.678;2023-03-15T08:14:20;100339.72;;;5.24;100.00
5413;BME280;2729;50.056;8.678;2023-03-15T08:16:46;100342.31;;;5.29;100.00
5413;BME280;2729;50.056;8.678;2023-03-15T08:19:12;100343.19;;;5.09;100.00
5413;BME280;2729;50.056;8.678;2023-03-15T08:21:38;100353.53;;;5.23;100.00
5413;BME280;2729;50.056;8.678;2023-03-15T08:24:04;100358.69;;;5.29;100.00
5413;BME280;2729;50.056;8.678;2023-03-15T08:26:30;100359.47;;;5.57;100.00
5413;BME280;2729;50.056;8.678;2023-03-15T08:28:56;100370.59;;;5.82;100.00
5413;BME280;2729;50.056;8.678;2023-03-15T08:31:22;100366.41;;;5.52;100.00
5413;BME280;2729;50.056;8.678;2023-03-15T08:33:48;100367.31;;;5.33;100.00
5413;BME280;2729;50.056;8.678;2023-03-15T08:36:14;100370.78;;;5.29;100.00
5413;BME280;2729;50.056;8.678;2023-03-15T08:38:40;100381.97;;;5.35;100.00
5413;BME280;2729;50.056;8.678;2023-03-15T08:41:06;100384.53;;;5.44;100.00
5413;BME280;2729;50.056;8.678;2023-03-15T08:43:32;100384.44;;;5.76;100.00
5413;BME280;2729;50.056;8.678;2023-03-15T08:45:58;100393.13;;;5.63;100.00
5413;BME280;2729;50.056;8.678;2023-03-15T08:48:24;100393.16;;;5.49;100.00
5413;BME280;2729;50.056;8.678;2023-03-15T08:50:50;100398.22;;;5.80;100.00
5413;BME280;2729;50.056;8.678;2023-03-15T08:53:16;100403.31;;;6.12;100.00
5413;BME280;2729;50.056;8.678;2023-03-15T08:55:41;100400.84;;;5.77;100.00
5413;BME280;2729;50.056;8.678;2023-03-15T08:58:07;100418.97;;;5.74;100.00
5413;BME280;2729;50.056;8.678;2023-03-15T09:00:33;100406.06;;;5.56;100.00
5413;BME280;2729;50.056;8.678;2023-03-15T09:02:59;100411.25;;;5.56;100.00
5413;BME280;2729;50.056;8.678;2023-03-15T09:05:27;100413.81;;;5.62;100.00
5413;BME280;2729;50.056;8.678;2023-03-15T09:07:53;100413.84;;;5.56;100.00
5413;BME280;2729;50.056;8.678;2023-03-15T09:10:19;100420.69;;;5.90;100.00
5413;BME280;2729;50.056;8.678;2023-03-15T09:12:49;100416.31;;;6.00;100.00
5413;BME280;2729;50.056;8.678;2023-03-15T09:15:15;100420.59;;;6.11;100.00
5413;BME280;2729;50.056;8.678;2023-03-15T09:17:41;100419.72;;;6.12;100.00
5413;BME280;2729;50.056;8.678;2023-03-15T09:20:10;100426.69;;;5.97;100.00
5413;BME280;2729;50.056;8.678;2023-03-15T09:22:49;100426.56;;;6.24;100.00
5413;BME280;2729;50.056;8.678;2023-03-15T09:25:16;100432.63;;;6.25;100.00
5413;BME280;2729;50.056;8.678;2023-03-15T09:27:41;100431.66;;;6.42;100.00
5413;BME280;2729;50.056;8.678;2023-03-15T09:30:08;100441.28;;;6.22;100.00
5413;BME280;2729;50.056;8.678;2023-03-15T09:32:34;100436.19;;;5.93;100.00
5413;BME280;2729;50.056;8.678;2023-03-15T09:35:02;100443.03;;;6.12;100.00
5413;BME280;2729;50.056;8.678;2023-03-15T09:37:28;100449.97;;;6.10;100.00
5413;BME280;2729;50.056;8.678;2023-03-15T09:39:54;100450.88;;;5.97;100.00
5413;BME280;2729;50.056;8.678;2023-03-15T09:42:39;100452.63;;;5.78;100.00
5413;BME280;2729;50.056;8.678;2023-03-15T09:45:21;100456.03;;;5.88;100.00
5413;BME280;2729;50.056;8.678;2023-03-15T09:50:39;100452.34;;;6.52;100.00
5413;BME280;2729;50.056;8.678;2023-03-15T09:53:13;100454.81;;;6.74;100.00
5413;BME280;2729;50.056;8.678;2023-03-15T09:55:43;100454.09;;;6.48;100.00
5413;BME280;2729;50.056;8.678;2023-03-15T09:58:24;100462.81;;;6.30;100.00
5413;BME280;2729;50.056;8.678;2023-03-15T10:00:53;100468.00;;;6.33;100.00
5413;BME280;2729;50.056;8.678;2023-03-15T10:03:41;100471.44;;;6.38;100.00
5413;BME280;2729;50.056;8.678;2023-03-15T10:06:17;100465.47;;;6.17;100.00
5413;BME280;2729;50.056;8.678;2023-03-15T10:08:45;100476.72;;;6.17;100.00
5413;BME280;2729;50.056;8.678;2023-03-15T10:11:14;100473.00;;;6.67;100.00
5413;BME280;2729;50.056;8.678;2023-03-15T10:13:53;100465.97;;;6.87;100.00
5413;BME280;2729;50.056;8.678;2023-03-15T10:16:45;100458.72;;;7.29;100.00
5413;BME280;2729;50.056;8.678;2023-03-15T10:24:56;100462.66;;;7.71;100.00
5413;BME280;2729;50.056;8.678;2023-03-15T10:27:40;100460.34;;;7.39;100.00
5413;BME280;2729;50.056;8.678;2023-03-15T10:30:25;100467.28;;;7.38;100.00
5413;BME280;2729;50.056;8.678;2023-03-15T10:32:59;100465.53;;;7.40;100.00
5413;BME280;2729;50.056;8.678;2023-03-15T10:35:27;100460.50;;;7.21;100.00
5413;BME280;2729;50.056;8.678;2023-03-15T10:37:53;100461.44;;;7.12;100.00
5413;BME280;2729;50.056;8.678;2023-03-15T10:40:47;100462.06;;;7.40;100.00
5413;BME280;2729;50.056;8.678;2023-03-15T10:43:22;100459.69;;;7.17;100.00
5413;BME280;2729;50.056;8.678;2023-03-15T10:45:59;100458.94;;;7.01;100.00
5413;BME280;2729;50.056;8.678;2023-03-15T10:48:27;100458.06;;;7.01;100.00
5413;BME280;2729;50.056;8.678;2023-03-15T10:50:54;100464.94;;;7.08;100.00
5413;BME280;2729;50.056;8.678;2023-03-15T10:53:21;100460.81;;;6.81;100.00
5413;BME280;2729;50.056;8.678;2023-03-15T10:55:58;100461.88;;;6.48;100.00
5413;BME280;2729;50.056;8.678;2023-03-15T10:58:39;100460.72;;;6.95;100.00
5413;BME280;2729;50.056;8.678;2023-03-15T11:01:07;100464.09;;;7.04;100.00
5413;BME280;2729;50.056;8.678;2023-03-15T11:03:35;100456.31;;;7.06;100.00
5413;BME280;2729;50.056;8.678;2023-03-15T11:06:18;100453.53;;;7.29;100.00
5413;BME280;2729;50.056;8.678;2023-03-15T11:08:44;100455.97;;;7.46;100.00
5413;BME280;2729;50.056;8.678;2023-03-15T11:11:10;100455.22;;;7.33;100.00
5413;BME280;2729;50.056;8.678;2023-03-15T11:13:37;100462.28;;;7.16;100.00
5413;BME280;2729;50.056;8.678;2023-03-15T11:16:07;100465.84;;;7.02;100.00
5413;BME280;2729;50.056;8.678;2023-03-15T11:18:42;100474.28;;;7.30;100.00
5413;BME280;2729;50.056;8.678;2023-03-15T11:21:12;100466.72;;;7.98;100.00
5413;BME280;2729;50.056;8.678;2023-03-15T11:23:48;100469.22;;;8.05;100.00
5413;BME280;2729;50.056;8.678;2023-03-15T11:26:21;100470.88;;;8.13;100.00
5413;BME280;2729;50.056;8.678;2023-03-15T11:28:50;100471.13;;;7.91;100.00
5413;BME280;2729;50.056;8.678;2023-03-15T11:31:24;100472.88;;;7.89;100.00
5413;BME280;2729;50.056;8.678;2023-03-15T11:34:02;100478.34;;;8.42;100.00
5413;BME280;2729;50.056;8.678;2023-03-15T11:36:32;100478.88;;;7.94;100.00
5413;BME280;2729;50.056;8.678;2023-03-15T11:39:01;100476.38;;;7.85;100.00
5413;BME280;2729;50.056;8.678;2023-03-15T11:41:46;100480.53;;;8.01;100.00
5413;BME280;2729;50.056;8.678;2023-03-15T11:44:27;100478.06;;;7.91;100.00
5413;BME280;2729;50.056;8.678;2023-03-15T11:47:02;100472.06;;;7.83;100.00
5413;BME280;2729;50.056;8.678;2023-03-15T11:49:35;100482.41;;;7.87;100.00
5413;BME280;2729;50.056;8.678;2023-03-15T11:52:03;100482.22;;;8.05;100.00
5413;BME280;2729;50.056;8.678;2023-03-15T11:54:30;100475.13;;;8.18;100.00
5413;BME280;2729;50.056;8.678;2023-03-15T11:57:05;100483.59;;;8.37;99.30
5413;BME280;2729;50.056;8.678;2023-03-15T11:59:33;100485.94;;;8.58;94.65
5413;BME280;2729;50.056;8.678;2023-03-15T12:04:44;100495.16;;;8.12;84.77
5413;BME280;2729;50.056;8.678;2023-03-15T12:09:40;100486.63;;;8.71;87.62
5413;BME280;2729;50.056;8.678;2023-03-15T12:22:52;100490.47;;;9.04;84.95
5413;BME280;2729;50.056;8.678;2023-03-15T12:25:33;100495.22;;;8.78;82.76
5413;BME280;2729;50.056;8.678;2023-03-15T12:28:04;100497.00;;;8.73;82.49
5413;BME280;2729;50.056;8.678;2023-03-15T12:30:40;100501.59;;;8.55;80.85
5413;BME280;2729;50.056;8.678;2023-03-15T12:33:21;100502.34;;;8.63;76.97
5413;BME280;2729;50.056;8.678;2023-03-15T12:35:48;100495.19;;;8.79;74.31
5413;BME280;2729;50.056;8.678;2023-03-15T12:38:17;100500.25;;;8.88;83.91
5413;BME280;2729;50.056;8.678;2023-03-15T12:40:56;100497.25;;;8.54;77.32
5413;BME280;2729;50.056;8.678;2023-03-15T12:46:02;100509.75;;;8.92;79.49
5413;BME280;2729;50.056;8.678;2023-03-15T12:48:29;100496.53;;;9.05;82.32
5413;BME280;2729;50.056;8.678;2023-03-15T12:51:00;100507.31;;;8.80;80.17
5413;BME280;2729;50.056;8.678;2023-03-15T12:56:32;100498.78;;;8.70;80.41
5413;BME280;2729;50.056;8.678;2023-03-15T13:05:16;100508.03;;;8.91;74.79
5413;BME280;2729;50.056;8.678;2023-03-15T13:08:06;100498.88;;;9.23;82.04
5413;BME280;2729;50.056;8.678;2023-03-15T13:15:57;100508.81;;;8.96;76.20
5413;BME280;2729;50.056;8.678;2023-03-15T13:18:28;100504.22;;;9.14;74.88
5413;BME280;2729;50.056;8.678;2023-03-15T13:21:34;100506.19;;;8.98;74.67
5413;BME280;2729;50.056;8.678;2023-03-15T13:24:02;100509.31;;;8.60;76.36
5413;BME280;2729;50.056;8.678;2023-03-15T13:27:05;100509.06;;;8.78;77.85
5413;BME280;2729;50.056;8.678;2023-03-15T13:29:30;100505.28;;;9.00;76.18
5413;BME280;2729;50.056;8.678;2023-03-15T13:32:17;100514.31;;;8.77;78.11
5413;BME280;2729;50.056;8.678;2023-03-15T13:34:45;100513.13;;;8.99;77.31
5413;BME280;2729;50.056;8.678;2023-03-15T13:37:23;100509.31;;;9.21;73.17
5413;BME280;2729;50.056;8.678;2023-03-15T13:39:59;100500.56;;;9.25;75.64
5413;BME280;2729;50.056;8.678;2023-03-15T13:42:25;100504.34;;;9.58;77.40
5413;BME280;2729;50.056;8.678;2023-03-15T13:45:11;100503.75;;;9.43;69.12
5413;BME280;2729;50.056;8.678;2023-03-15T13:47:40;100509.53;;;9.60;69.55
5413;BME280;2729;50.056;8.678;2023-03-15T13:50:14;100489.53;;;9.10;73.76
5413;BME280;2729;50.056;8.678;2023-03-15T13:52:41;100500.69;;;9.18;70.85
5413;BME280;2729;50.056;8.678;2023-03-15T13:55:11;100491.53;;;8.92;70.25
5413;BME280;2729;50.056;8.678;2023-03-15T13:57:38;100487.34;;;8.82;69.25
5413;BME280;2729;50.056;8.678;2023-03-15T14:00:08;100489.25;;;8.69;71.79
5413;BME280;2729;50.056;8.678;2023-03-15T14:02:52;100488.72;;;9.06;65.90
5413;BME280;2729;50.056;8.678;2023-03-15T14:05:24;100489.63;;;9.03;65.78
5413;BME280;2729;50.056;8.678;2023-03-15T14:07:59;100485.81;;;9.24;58.88
5413;BME280;2729;50.056;8.678;2023-03-15T14:10:37;100490.28;;;9.68;62.33
5413;BME280;2729;50.056;8.678;2023-03-15T14:13:29;100508.78;;;10.01;61.15
5413;BME280;2729;50.056;8.678;2023-03-15T14:16:02;100496.63;;;9.54;60.77